Portada
METAR-TAF:

METAR-TAF

Aeroports :

Khajuraho, Índia

latitud: 24-49-02N, longitud: 79-55-07E, altitud: 222 m

Observació

L'informe es va fer fa 3 hores i 47 minuts, a les 12:00 UTC
Vent 5 kt del Est/Nord-Est
Temperatura 30°C
Humitat 89%
Pressió 992 hPa
Visibilitat: 4000 m
Escasses núvols a una alçada de 1000 ft
Núvols disperses a una alçada de 2000 ft
Cel ennuvolat a una alçada de 8000 ft
calitja

METAR: VEKO 251200Z 07005KT 4000 HZ FEW010 SCT020 BKN080 30/28 Q0992 TEMPO -TSRA

Hora: 21:17 (15:47 UTC)


TAF: manca

Observacions i pronòstics meteorològics de més de 4000 aeroports (METAR i TAF).

Les estacions disponibles són els punts grocs i vermells al mapa.

Posi el ratolí al punt desitjat per veure el nom de l'estació.

Feu clic per veure les observacions i els pronòstics meteorològics.

Per canviar el mapa: feu clic els botons verds amb una creu de color negre per apropar; al botó verd amb un guió per allunyar la imatge; o en les fletxes verdes per a mapes adjacents.


METAR-TAF: